createdAt,value
2023-01-23T00:01:35.161Z,25.67
2023-01-23T00:04:03.491Z,28.90
2023-01-23T00:06:30.776Z,26.23
2023-01-23T00:08:58.205Z,24.40
2023-01-23T00:11:30.330Z,29.53
2023-01-23T00:13:59.280Z,24.07
2023-01-23T00:16:32.667Z,26.00
2023-01-23T00:19:00.251Z,26.23
2023-01-23T00:21:29.160Z,23.87
2023-01-23T00:23:58.780Z,27.50
2023-01-23T00:26:30.233Z,27.30
2023-01-23T00:28:57.675Z,28.07
2023-01-23T00:31:30.634Z,25.77
2023-01-23T00:34:05.984Z,27.00
2023-01-23T00:36:42.149Z,28.63
2023-01-23T00:39:19.914Z,31.67
2023-01-23T00:41:49.135Z,30.03
2023-01-23T00:44:19.908Z,29.27
2023-01-23T00:46:48.287Z,28.03
2023-01-23T00:49:17.750Z,31.23
2023-01-23T00:51:46.183Z,28.20
2023-01-23T00:54:13.206Z,31.23
2023-01-23T00:56:40.170Z,30.13
2023-01-23T00:59:07.277Z,32.70
2023-01-23T01:01:35.179Z,28.10
2023-01-23T01:04:02.198Z,30.77
2023-01-23T01:06:29.888Z,30.47
2023-01-23T01:08:58.247Z,27.07
2023-01-23T01:11:26.077Z,30.50
2023-01-23T01:13:53.697Z,34.37
2023-01-23T01:16:20.885Z,28.70
2023-01-23T01:18:47.849Z,32.23
2023-01-23T01:21:17.771Z,32.77
2023-01-23T01:23:45.188Z,29.70
2023-01-23T01:26:12.787Z,34.63
2023-01-23T01:28:42.211Z,30.97
2023-01-23T01:31:16.088Z,33.50
2023-01-23T01:33:44.125Z,30.30
2023-01-23T01:36:19.231Z,34.57
2023-01-23T01:38:46.567Z,31.00
2023-01-23T01:41:14.455Z,32.20
2023-01-23T01:43:42.942Z,30.83
2023-01-23T01:46:12.645Z,35.77
2023-01-23T01:49:29.989Z,35.60
2023-01-23T01:52:11.205Z,32.20
2023-01-23T01:54:51.065Z,36.90
2023-01-23T01:57:35.527Z,36.10
2023-01-23T02:00:17.352Z,34.60
2023-01-23T02:03:01.372Z,38.30
2023-01-23T02:05:37.940Z,36.97
2023-01-23T02:08:52.985Z,35.67
2023-01-23T02:11:20.232Z,36.73
2023-01-23T02:13:47.199Z,31.23
2023-01-23T02:16:25.279Z,34.70
2023-01-23T02:19:00.990Z,35.47
2023-01-23T02:21:29.577Z,36.50
2023-01-23T02:24:27.989Z,35.87
2023-01-23T02:26:55.018Z,34.63
2023-01-23T02:29:21.953Z,33.23
2023-01-23T02:31:52.789Z,30.00
2023-01-23T02:34:22.141Z,32.60
2023-01-23T02:36:49.432Z,38.30
2023-01-23T02:39:21.214Z,34.47
2023-01-23T02:41:51.543Z,37.23
2023-01-23T02:44:26.844Z,32.03
2023-01-23T02:47:02.709Z,37.03
2023-01-23T02:49:29.878Z,33.57
2023-01-23T02:51:57.588Z,35.70
2023-01-23T02:54:26.152Z,37.73
2023-01-23T02:56:53.627Z,32.77
2023-01-23T02:59:39.607Z,37.53
2023-01-23T03:02:06.639Z,34.67
2023-01-23T03:04:33.749Z,35.80
2023-01-23T03:07:00.825Z,32.20
2023-01-23T03:09:28.332Z,33.80
2023-01-23T03:11:55.509Z,38.00
2023-01-23T03:14:24.449Z,40.17
2023-01-23T03:16:53.719Z,34.97
2023-01-23T03:19:26.591Z,34.20
2023-01-23T03:21:54.834Z,34.93
2023-01-23T03:24:24.832Z,37.83
2023-01-23T03:26:52.365Z,39.97
2023-01-23T03:29:44.261Z,38.03
2023-01-23T03:32:14.960Z,38.63
2023-01-23T03:34:43.402Z,38.30
2023-01-23T03:37:12.614Z,35.90
2023-01-23T03:39:58.264Z,34.87
2023-01-23T03:42:25.406Z,35.97
2023-01-23T03:44:53.703Z,39.63
2023-01-23T03:47:20.842Z,37.73
2023-01-23T03:49:47.835Z,37.73
2023-01-23T03:52:15.015Z,31.00
2023-01-23T03:54:42.257Z,34.73
2023-01-23T03:57:10.275Z,35.67
2023-01-23T03:59:37.211Z,37.20
2023-01-23T04:02:07.641Z,34.90
2023-01-23T04:04:35.963Z,40.37
2023-01-23T04:07:04.194Z,33.70
2023-01-23T04:09:31.213Z,35.50
2023-01-23T04:12:00.009Z,35.63
2023-01-23T04:14:37.425Z,33.07
2023-01-23T04:17:07.494Z,38.17
2023-01-23T04:19:35.553Z,40.50
2023-01-23T04:22:03.022Z,37.60
2023-01-23T04:24:29.969Z,39.17
2023-01-23T04:26:57.019Z,40.33
2023-01-23T04:29:24.024Z,39.37
2023-01-23T04:31:51.044Z,38.43
2023-01-23T04:34:21.346Z,37.73
2023-01-23T04:36:51.368Z,35.13
2023-01-23T04:39:18.285Z,35.50
2023-01-23T04:41:45.577Z,34.50
2023-01-23T04:44:22.109Z,36.07
2023-01-23T04:46:55.440Z,33.47
2023-01-23T04:49:24.526Z,34.37
2023-01-23T04:51:55.160Z,36.57
2023-01-23T04:54:22.273Z,36.27
2023-01-23T04:56:49.856Z,33.13
2023-01-23T04:59:16.950Z,36.20
2023-01-23T05:01:45.463Z,37.43
2023-01-23T05:04:12.750Z,36.80
2023-01-23T05:06:40.084Z,33.43
2023-01-23T05:09:08.668Z,36.63
2023-01-23T05:11:35.619Z,34.37
2023-01-23T05:14:03.076Z,35.30
2023-01-23T05:16:30.143Z,35.90
2023-01-23T05:18:57.099Z,33.27
2023-01-23T05:21:24.058Z,36.37
2023-01-23T05:23:51.179Z,35.80
2023-01-23T05:26:18.240Z,34.97
2023-01-23T05:28:46.211Z,33.07
2023-01-23T05:31:13.734Z,39.57
2023-01-23T05:33:40.815Z,42.70
2023-01-23T05:36:08.124Z,35.20
2023-01-23T05:38:38.253Z,35.80
2023-01-23T05:41:05.344Z,32.67
2023-01-23T05:43:32.581Z,33.37
2023-01-23T05:46:01.497Z,36.47
2023-01-23T05:48:29.521Z,32.10
2023-01-23T05:50:56.790Z,34.77
2023-01-23T05:53:23.904Z,32.07
2023-01-23T05:55:50.995Z,35.90
2023-01-23T05:58:17.913Z,34.03
2023-01-23T06:00:44.826Z,38.30
2023-01-23T06:03:11.799Z,34.73
2023-01-23T06:05:43.301Z,35.97
2023-01-23T06:08:14.590Z,37.07
2023-01-23T06:10:41.460Z,29.67
2023-01-23T06:13:08.360Z,32.70
2023-01-23T06:15:35.425Z,35.57
2023-01-23T06:18:02.504Z,34.47
2023-01-23T06:20:29.937Z,29.97
2023-01-23T06:22:57.416Z,35.20
2023-01-23T06:25:24.844Z,36.10
2023-01-23T06:27:55.109Z,35.23
2023-01-23T06:30:22.489Z,34.10
2023-01-23T06:32:49.665Z,29.40
2023-01-23T06:35:16.832Z,29.50
2023-01-23T06:37:45.933Z,32.60
2023-01-23T06:40:14.252Z,34.53
2023-01-23T06:42:42.534Z,34.10
2023-01-23T06:45:12.094Z,32.50
2023-01-23T06:47:39.296Z,30.17
2023-01-23T06:50:07.505Z,36.53
2023-01-23T06:52:34.658Z,34.43
2023-01-23T06:55:01.633Z,33.07
2023-01-23T06:57:28.721Z,33.83
2023-01-23T06:59:55.617Z,32.57
2023-01-23T07:02:23.350Z,34.80
2023-01-23T07:04:50.443Z,32.33
2023-01-23T07:07:18.469Z,32.17
2023-01-23T07:09:45.531Z,31.37
2023-01-23T07:12:13.180Z,31.03
2023-01-23T07:14:40.099Z,34.43
2023-01-23T07:17:07.162Z,34.57
2023-01-23T07:19:34.134Z,32.37
2023-01-23T07:22:01.372Z,32.97
2023-01-23T07:24:32.469Z,34.33
2023-01-23T07:27:00.235Z,34.43
2023-01-23T07:29:27.308Z,34.77
2023-01-23T07:31:54.354Z,31.97
2023-01-23T07:34:21.379Z,32.20
2023-01-23T07:36:48.272Z,38.30
2023-01-23T07:39:16.093Z,30.97
2023-01-23T07:41:44.828Z,33.50
2023-01-23T07:44:21.687Z,32.03
2023-01-23T07:46:49.823Z,30.60
2023-01-23T07:49:17.365Z,33.23
2023-01-23T07:51:44.431Z,32.43
2023-01-23T07:54:11.698Z,34.67
2023-01-23T07:56:41.756Z,31.87
2023-01-23T07:59:09.021Z,30.50
2023-01-23T08:01:36.056Z,35.63
2023-01-23T08:04:03.215Z,31.90
2023-01-23T08:06:30.309Z,34.57
2023-01-23T08:08:57.258Z,32.77
2023-01-23T08:11:26.417Z,30.30
2023-01-23T08:13:53.498Z,34.00
2023-01-23T08:16:20.541Z,34.67
2023-01-23T08:18:47.755Z,29.70
2023-01-23T08:21:14.900Z,31.93
2023-01-23T08:23:45.779Z,31.90
2023-01-23T08:26:16.256Z,29.67
2023-01-23T08:28:46.004Z,38.67
2023-01-23T08:31:14.922Z,32.90
2023-01-23T08:33:42.472Z,31.47
2023-01-23T08:36:12.958Z,33.00
2023-01-23T08:38:40.343Z,31.87
2023-01-23T08:41:09.820Z,31.70
2023-01-23T08:43:38.187Z,34.77
2023-01-23T08:46:05.270Z,32.63
2023-01-23T08:48:34.091Z,33.33
2023-01-23T08:51:14.066Z,28.83
2023-01-23T08:53:42.026Z,28.63
2023-01-23T08:56:19.248Z,30.27
2023-01-23T08:58:51.345Z,27.60
2023-01-23T09:01:25.755Z,28.70
2023-01-23T09:03:53.299Z,30.17
2023-01-23T09:06:22.747Z,31.07
2023-01-23T09:08:50.410Z,32.70
2023-01-23T09:11:18.646Z,29.07
2023-01-23T09:13:46.870Z,28.87
2023-01-23T09:16:14.455Z,28.70
2023-01-23T09:18:42.504Z,34.93
2023-01-23T09:21:14.592Z,27.57
2023-01-23T09:23:42.301Z,31.37
2023-01-23T09:26:13.332Z,26.70
2023-01-23T09:28:42.701Z,30.63
2023-01-23T09:31:14.684Z,27.53
2023-01-23T09:33:42.724Z,33.70
2023-01-23T09:36:10.559Z,27.60
2023-01-23T09:38:37.729Z,29.10
2023-01-23T09:41:23.623Z,28.17
2023-01-23T09:44:11.644Z,29.73
2023-01-23T09:47:02.412Z,28.77
2023-01-23T09:49:53.228Z,29.47
2023-01-23T09:52:25.998Z,28.90
2023-01-23T09:55:18.446Z,24.53
2023-01-23T09:57:55.711Z,30.00
2023-01-23T10:00:29.957Z,31.27
2023-01-23T10:02:58.086Z,27.40
2023-01-23T10:06:09.306Z,27.97
2023-01-23T10:08:55.111Z,32.63
2023-01-23T10:11:42.655Z,25.47
2023-01-23T10:15:19.181Z,26.13
2023-01-23T10:18:15.882Z,29.57
2023-01-23T10:21:28.903Z,32.20
2023-01-23T10:24:40.480Z,25.80
2023-01-23T10:27:41.773Z,28.97
2023-01-23T10:30:35.101Z,28.80
2023-01-23T10:33:16.185Z,26.13
2023-01-23T10:36:05.113Z,29.20
2023-01-23T10:38:48.060Z,28.93
2023-01-23T10:41:23.549Z,25.27
2023-01-23T10:43:54.812Z,28.57
2023-01-23T10:46:43.374Z,24.33
2023-01-23T10:49:10.446Z,27.10
2023-01-23T10:51:47.845Z,25.00
2023-01-23T10:54:32.836Z,27.40
2023-01-23T10:57:24.227Z,28.87
2023-01-23T11:00:45.644Z,27.70
2023-01-23T11:03:32.630Z,25.83
2023-01-23T11:06:09.350Z,34.17
2023-01-23T11:08:47.268Z,30.90
2023-01-23T11:11:23.786Z,23.97
2023-01-23T11:14:22.643Z,27.23
2023-01-23T11:17:33.279Z,26.90
2023-01-23T11:20:32.207Z,27.57
2023-01-23T11:30:54.201Z,27.67
2023-01-23T11:33:25.240Z,28.03
2023-01-23T11:36:19.406Z,32.40
2023-01-23T11:39:19.070Z,30.30
2023-01-23T11:42:04.498Z,24.37
2023-01-23T11:44:44.999Z,25.17
2023-01-23T11:47:59.045Z,27.77
2023-01-23T11:50:55.970Z,31.30
2023-01-23T11:53:58.575Z,28.37
2023-01-23T11:56:33.301Z,19.37
2023-01-23T11:59:31.952Z,24.13
2023-01-23T12:02:40.489Z,23.67
2023-01-23T12:06:13.879Z,30.67
2023-01-23T12:09:12.275Z,25.20
2023-01-23T12:12:20.372Z,22.90
2023-01-23T12:15:23.715Z,24.70
2023-01-23T12:18:17.354Z,26.67
2023-01-23T12:20:48.312Z,22.33
2023-01-23T12:23:49.112Z,24.43
2023-01-23T12:26:24.571Z,20.93
2023-01-23T12:30:08.688Z,22.53
2023-01-23T12:32:54.733Z,24.17
2023-01-23T12:35:42.641Z,20.50
2023-01-23T12:38:44.203Z,20.20
2023-01-23T12:41:53.343Z,25.57
2023-01-23T12:44:54.107Z,23.30
2023-01-23T12:47:44.690Z,22.73
2023-01-23T12:50:42.450Z,22.57
2023-01-23T12:53:18.070Z,19.23
2023-01-23T12:56:15.571Z,20.83
2023-01-23T12:59:14.171Z,28.77
2023-01-23T13:02:46.025Z,22.93
2023-01-23T13:06:00.385Z,24.37
2023-01-23T13:08:38.389Z,20.20
2023-01-23T13:11:44.927Z,20.73
2023-01-23T13:15:06.475Z,18.47
2023-01-23T13:17:40.005Z,21.00
2023-01-23T13:20:51.932Z,20.80
2023-01-23T13:23:33.403Z,18.97
2023-01-23T13:26:15.768Z,22.07
2023-01-23T13:28:57.870Z,18.70
2023-01-23T13:31:47.507Z,27.13
2023-01-23T13:34:37.082Z,16.97
2023-01-23T13:37:51.244Z,20.43
2023-01-23T13:40:24.590Z,22.20
2023-01-23T13:42:52.019Z,21.17
2023-01-23T13:45:30.811Z,18.93
2023-01-23T14:20:39.988Z,20.27
2023-01-23T14:23:29.739Z,19.97
2023-01-23T14:25:57.517Z,21.03
2023-01-23T14:28:24.933Z,21.63
2023-01-23T14:31:06.821Z,19.13
2023-01-23T14:33:45.330Z,19.73
2023-01-23T14:36:18.336Z,19.93
2023-01-23T14:38:49.997Z,20.13
2023-01-23T14:41:20.904Z,21.80
2023-01-23T14:43:56.943Z,20.23
2023-01-23T14:46:39.107Z,18.93
2023-01-23T14:49:09.857Z,20.30
2023-01-23T14:51:39.626Z,23.63
2023-01-23T14:54:22.793Z,18.40
2023-01-23T14:56:51.132Z,19.27
2023-01-23T14:59:40.166Z,21.27
2023-01-23T15:02:40.329Z,22.90
2023-01-23T15:05:23.479Z,20.13
2023-01-23T15:08:05.951Z,21.90
2023-01-23T15:10:43.728Z,19.57
2023-01-23T15:13:50.179Z,18.73
2023-01-23T15:16:29.188Z,21.27
2023-01-23T15:19:18.790Z,20.00
2023-01-23T15:21:46.188Z,20.97
2023-01-23T15:24:13.194Z,18.30
2023-01-23T15:27:01.300Z,16.90
2023-01-23T15:29:28.476Z,22.37
2023-01-23T15:31:57.191Z,20.20
2023-01-23T15:34:29.313Z,19.60
2023-01-23T15:37:13.977Z,17.20
2023-01-23T15:40:02.416Z,20.07
2023-01-23T15:42:35.649Z,17.63
2023-01-23T15:45:15.055Z,19.73
2023-01-23T15:47:44.250Z,19.87
2023-01-23T15:50:13.275Z,21.67
2023-01-23T15:52:53.827Z,17.80
2023-01-23T15:55:26.481Z,19.73
2023-01-23T15:57:55.224Z,20.30
2023-01-23T16:00:29.961Z,21.40
2023-01-23T16:02:59.513Z,20.10
2023-01-23T16:05:35.342Z,19.07
2023-01-23T16:08:05.827Z,18.47
2023-01-23T16:10:38.480Z,17.23
2023-01-23T16:13:07.849Z,21.50
2023-01-23T16:15:38.163Z,20.53
2023-01-23T16:18:05.671Z,18.53
2023-01-23T16:20:41.233Z,19.50
2023-01-23T16:23:19.645Z,16.20
2023-01-23T16:25:48.203Z,18.90
2023-01-23T16:28:20.423Z,21.63
2023-01-23T16:30:50.720Z,17.73
2023-01-23T16:33:22.111Z,18.50
2023-01-23T16:35:51.303Z,19.17
2023-01-23T16:38:53.485Z,19.30
2023-01-23T16:41:20.454Z,20.43
2023-01-23T16:43:47.388Z,22.30
2023-01-23T16:46:17.396Z,20.67
2023-01-23T16:48:44.489Z,18.40
2023-01-23T16:51:24.169Z,19.57
2023-01-23T16:53:57.953Z,22.10
2023-01-23T16:56:38.064Z,20.67
2023-01-23T16:59:08.513Z,20.17
2023-01-23T17:01:40.525Z,22.50
2023-01-23T17:04:07.744Z,19.70
2023-01-23T17:06:34.867Z,19.43
2023-01-23T17:09:01.803Z,20.53
2023-01-23T17:11:50.081Z,25.77
2023-01-23T17:14:24.669Z,22.97
2023-01-23T17:16:53.438Z,22.23
2023-01-23T17:19:40.248Z,22.87
2023-01-23T17:22:30.370Z,20.20
2023-01-23T17:24:57.454Z,20.60
2023-01-23T17:27:24.521Z,21.73
2023-01-23T17:29:51.434Z,19.30
2023-01-23T17:32:39.183Z,19.77
2023-01-23T17:35:17.093Z,22.47
2023-01-23T17:37:44.210Z,17.00
2023-01-23T17:40:15.939Z,21.60
2023-01-23T17:42:43.724Z,22.00
2023-01-23T17:45:19.785Z,19.53
2023-01-23T17:47:54.771Z,26.67
2023-01-23T17:50:27.077Z,20.37
2023-01-23T17:52:54.836Z,20.10
2023-01-23T17:55:28.821Z,32.27
2023-01-23T17:57:55.707Z,25.50
2023-01-23T18:00:23.481Z,21.57
2023-01-23T18:03:01.941Z,22.33
2023-01-23T18:05:29.002Z,22.13
2023-01-23T18:07:56.284Z,22.87
2023-01-23T18:10:28.353Z,19.50
2023-01-23T18:13:14.208Z,17.60
2023-01-23T18:16:07.408Z,22.93
2023-01-23T18:18:39.066Z,24.83
2023-01-23T18:21:15.511Z,28.33
2023-01-23T18:23:43.196Z,24.63
2023-01-23T18:26:27.953Z,20.37
2023-01-23T18:29:10.127Z,23.10
2023-01-23T18:32:04.963Z,20.77
2023-01-23T18:35:25.408Z,19.83
2023-01-23T18:38:54.666Z,21.87
2023-01-23T18:41:27.094Z,22.30
2023-01-23T18:44:12.478Z,33.20
2023-01-23T18:46:39.732Z,27.33
2023-01-23T18:49:08.781Z,18.33
2023-01-23T18:51:49.684Z,23.10
2023-01-23T18:55:11.446Z,22.17
2023-01-23T18:58:20.941Z,26.30
2023-01-23T19:01:29.808Z,21.90
2023-01-23T19:03:57.592Z,22.33
2023-01-23T19:06:26.277Z,22.97
2023-01-23T19:08:54.480Z,18.83
2023-01-23T19:12:24.920Z,19.77
2023-01-23T19:15:41.444Z,22.30
2023-01-23T19:18:43.285Z,21.47
2023-01-23T19:21:26.664Z,22.63
2023-01-23T19:24:09.943Z,21.13
2023-01-23T19:26:42.009Z,21.93
2023-01-23T19:29:21.569Z,21.47
2023-01-23T19:32:06.924Z,21.67
2023-01-23T19:34:34.729Z,21.73
2023-01-23T19:37:02.905Z,19.57
2023-01-23T19:39:30.708Z,22.57
2023-01-23T19:41:59.358Z,22.97
2023-01-23T19:44:28.933Z,20.83
2023-01-23T19:46:56.094Z,21.33
2023-01-23T19:49:23.167Z,27.10
2023-01-23T19:51:50.195Z,21.77
2023-01-23T19:54:17.279Z,21.60
2023-01-23T19:56:44.224Z,21.20
2023-01-23T19:59:11.469Z,19.90
2023-01-23T20:01:52.294Z,21.13
2023-01-23T20:04:22.922Z,20.63
2023-01-23T20:06:51.843Z,19.77
2023-01-23T20:09:20.020Z,21.07
2023-01-23T20:11:47.923Z,22.50
2023-01-23T20:14:15.690Z,20.50
2023-01-23T20:16:44.538Z,21.53
2023-01-23T20:19:15.387Z,19.37
2023-01-23T20:21:42.552Z,21.33
2023-01-23T20:24:09.671Z,24.17
2023-01-23T20:26:38.725Z,18.97
2023-01-23T20:29:07.804Z,22.63
2023-01-23T20:31:35.763Z,20.43
2023-01-23T20:34:03.158Z,21.03
2023-01-23T20:36:30.306Z,19.60
2023-01-23T20:38:57.646Z,22.77
2023-01-23T20:41:24.781Z,20.90
2023-01-23T20:43:51.726Z,19.90
2023-01-23T20:46:21.631Z,22.30
2023-01-23T20:48:48.782Z,21.60
2023-01-23T20:51:16.830Z,19.97
2023-01-23T20:53:44.680Z,19.60
2023-01-23T20:56:19.409Z,22.37
2023-01-23T20:59:08.172Z,19.97
2023-01-23T21:01:57.842Z,21.43
2023-01-23T21:04:32.499Z,21.47
2023-01-23T21:07:00.223Z,22.57
2023-01-23T21:09:27.748Z,20.03
2023-01-23T21:11:55.506Z,21.20
2023-01-23T21:14:23.650Z,19.43
2023-01-23T21:16:50.664Z,21.70
2023-01-23T21:19:18.630Z,20.37
2023-01-23T21:21:46.884Z,20.27
2023-01-23T21:24:14.337Z,22.13
2023-01-23T21:26:41.826Z,19.93
2023-01-23T21:29:08.935Z,23.67
2023-01-23T21:31:39.305Z,22.40
2023-01-23T21:34:11.934Z,20.80
2023-01-23T21:36:41.020Z,22.60
2023-01-23T21:39:10.321Z,21.67
2023-01-23T21:41:37.587Z,21.37
2023-01-23T21:44:04.665Z,22.83
2023-01-23T21:46:31.656Z,25.50
2023-01-23T21:48:59.614Z,26.47
2023-01-23T21:51:27.783Z,25.37
2023-01-23T21:53:54.790Z,26.53
2023-01-23T21:56:23.982Z,24.83
2023-01-23T21:58:55.758Z,24.17
2023-01-23T22:01:42.021Z,24.30
2023-01-23T22:04:16.207Z,23.17
2023-01-23T22:07:01.358Z,25.27
2023-01-23T22:09:33.377Z,23.33
2023-01-23T22:12:01.196Z,25.30
2023-01-23T22:14:31.118Z,29.27
2023-01-23T22:16:58.443Z,25.33
2023-01-23T22:19:26.082Z,25.93
2023-01-23T22:21:55.946Z,26.03
2023-01-23T22:24:26.855Z,28.07
2023-01-23T22:26:55.094Z,27.13
2023-01-23T22:29:33.343Z,31.57
2023-01-23T22:32:12.484Z,28.90
2023-01-23T22:34:40.020Z,29.23
2023-01-23T22:37:08.247Z,26.97
2023-01-23T22:39:40.998Z,26.70
2023-01-23T22:42:19.737Z,28.67
2023-01-23T22:47:56.051Z,27.47
2023-01-23T22:50:34.979Z,28.63
2023-01-23T22:53:04.514Z,28.00
2023-01-23T22:55:32.069Z,28.67
2023-01-23T22:57:59.516Z,28.63
2023-01-23T23:00:31.996Z,31.00
2023-01-23T23:02:59.286Z,38.97
2023-01-23T23:05:27.145Z,31.60
2023-01-23T23:08:02.978Z,32.37
2023-01-23T23:10:30.645Z,28.93
2023-01-23T23:13:04.029Z,30.27
2023-01-23T23:15:41.770Z,29.43
2023-01-23T23:18:12.425Z,34.13
2023-01-23T23:20:42.706Z,32.77
2023-01-23T23:23:14.119Z,29.50
2023-01-23T23:25:42.111Z,30.83
2023-01-23T23:28:16.614Z,32.73
2023-01-23T23:31:01.264Z,29.70
2023-01-23T23:33:42.669Z,28.97
2023-01-23T23:36:23.626Z,27.33
2023-01-23T23:38:54.174Z,27.17
2023-01-23T23:41:36.040Z,27.00
2023-01-23T23:44:06.841Z,28.23
2023-01-23T23:46:40.143Z,25.67
2023-01-23T23:49:07.652Z,25.10
2023-01-23T23:51:37.624Z,25.60
2023-01-23T23:54:08.231Z,26.83
2023-01-23T23:56:35.749Z,24.73
2023-01-23T23:59:03.403Z,25.03
